sensor_id;sensor_type;location;lat;lon;timestamp;P1;durP1;ratioP1;P2;durP2;ratioP2
6979;SDS011;3530;52.832;10.680;2023-07-28T00:02:36;0.90;;;0.90;;
6979;SDS011;3530;52.832;10.680;2023-07-28T00:05:22;0.88;;;0.88;;
6979;SDS011;3530;52.832;10.680;2023-07-28T00:08:07;1.95;;;0.90;;
6979;SDS011;3530;52.832;10.680;2023-07-28T00:10:53;0.95;;;0.90;;
6979;SDS011;3530;52.832;10.680;2023-07-28T00:13:39;0.90;;;0.90;;
6979;SDS011;3530;52.832;10.680;2023-07-28T00:16:24;1.17;;;0.90;;
6979;SDS011;3530;52.832;10.680;2023-07-28T00:19:10;0.85;;;0.85;;
6979;SDS011;3530;52.832;10.680;2023-07-28T00:21:56;0.70;;;0.70;;
6979;SDS011;3530;52.832;10.680;2023-07-28T00:24:41;0.77;;;0.77;;
6979;SDS011;3530;52.832;10.680;2023-07-28T00:27:27;1.02;;;1.02;;
6979;SDS011;3530;52.832;10.680;2023-07-28T00:30:13;1.08;;;1.08;;
6979;SDS011;3530;52.832;10.680;2023-07-28T00:32:58;0.80;;;0.80;;
6979;SDS011;3530;52.832;10.680;2023-07-28T00:35:44;1.30;;;0.90;;
6979;SDS011;3530;52.832;10.680;2023-07-28T00:38:30;1.55;;;1.00;;
6979;SDS011;3530;52.832;10.680;2023-07-28T00:41:15;0.90;;;0.90;;
6979;SDS011;3530;52.832;10.680;2023-07-28T00:44:01;1.00;;;1.00;;
6979;SDS011;3530;52.832;10.680;2023-07-28T00:46:47;1.30;;;0.93;;
6979;SDS011;3530;52.832;10.680;2023-07-28T00:49:32;0.98;;;0.98;;
6979;SDS011;3530;52.832;10.680;2023-07-28T00:52:19;0.90;;;0.90;;
6979;SDS011;3530;52.832;10.680;2023-07-28T00:55:05;0.90;;;0.90;;
6979;SDS011;3530;52.832;10.680;2023-07-28T00:57:51;1.70;;;0.88;;
6979;SDS011;3530;52.832;10.680;2023-07-28T01:00:37;1.10;;;1.10;;
6979;SDS011;3530;52.832;10.680;2023-07-28T01:03:23;1.00;;;1.00;;
6979;SDS011;3530;52.832;10.680;2023-07-28T01:06:11;1.10;;;1.10;;
6979;SDS011;3530;52.832;10.680;2023-07-28T01:09:04;1.10;;;1.10;;
6979;SDS011;3530;52.832;10.680;2023-07-28T01:11:58;1.00;;;1.00;;
6979;SDS011;3530;52.832;10.680;2023-07-28T01:14:44;0.88;;;0.88;;
6979;SDS011;3530;52.832;10.680;2023-07-28T01:17:30;0.90;;;0.90;;
6979;SDS011;3530;52.832;10.680;2023-07-28T01:20:15;1.00;;;1.00;;
6979;SDS011;3530;52.832;10.680;2023-07-28T01:23:20;1.00;;;1.00;;
6979;SDS011;3530;52.832;10.680;2023-07-28T01:26:11;0.95;;;0.95;;
6979;SDS011;3530;52.832;10.680;2023-07-28T01:28:57;0.80;;;0.80;;
6979;SDS011;3530;52.832;10.680;2023-07-28T01:31:46;0.98;;;0.98;;
6979;SDS011;3530;52.832;10.680;2023-07-28T01:34:32;0.80;;;0.80;;
6979;SDS011;3530;52.832;10.680;2023-07-28T01:37:18;1.08;;;1.00;;
6979;SDS011;3530;52.832;10.680;2023-07-28T01:40:04;0.93;;;0.93;;
6979;SDS011;3530;52.832;10.680;2023-07-28T01:42:50;0.82;;;0.80;;
6979;SDS011;3530;52.832;10.680;2023-07-28T01:45:36;0.80;;;0.80;;
6979;SDS011;3530;52.832;10.680;2023-07-28T01:48:21;0.95;;;0.95;;
6979;SDS011;3530;52.832;10.680;2023-07-28T01:51:07;1.05;;;1.05;;
6979;SDS011;3530;52.832;10.680;2023-07-28T01:53:53;0.82;;;0.82;;
6979;SDS011;3530;52.832;10.680;2023-07-28T01:56:38;0.90;;;0.90;;
6979;SDS011;3530;52.832;10.680;2023-07-28T01:59:24;0.90;;;0.90;;
6979;SDS011;3530;52.832;10.680;2023-07-28T02:02:09;1.00;;;1.00;;
6979;SDS011;3530;52.832;10.680;2023-07-28T02:04:55;1.00;;;1.00;;
6979;SDS011;3530;52.832;10.680;2023-07-28T02:07:41;0.98;;;0.98;;
6979;SDS011;3530;52.832;10.680;2023-07-28T02:10:27;0.90;;;0.90;;
6979;SDS011;3530;52.832;10.680;2023-07-28T02:13:13;1.10;;;1.10;;
6979;SDS011;3530;52.832;10.680;2023-07-28T02:15:59;1.77;;;1.25;;
6979;SDS011;3530;52.832;10.680;2023-07-28T02:18:45;1.52;;;1.15;;
6979;SDS011;3530;52.832;10.680;2023-07-28T02:21:30;1.08;;;1.08;;
6979;SDS011;3530;52.832;10.680;2023-07-28T02:24:16;2.45;;;1.17;;
6979;SDS011;3530;52.832;10.680;2023-07-28T02:27:02;1.50;;;1.40;;
6979;SDS011;3530;52.832;10.680;2023-07-28T02:29:47;1.25;;;1.25;;
6979;SDS011;3530;52.832;10.680;2023-07-28T02:32:33;1.25;;;1.25;;
6979;SDS011;3530;52.832;10.680;2023-07-28T02:35:19;1.38;;;1.30;;
6979;SDS011;3530;52.832;10.680;2023-07-28T02:38:05;1.10;;;1.10;;
6979;SDS011;3530;52.832;10.680;2023-07-28T02:40:50;0.98;;;0.98;;
6979;SDS011;3530;52.832;10.680;2023-07-28T02:43:36;1.48;;;1.10;;
6979;SDS011;3530;52.832;10.680;2023-07-28T02:46:22;1.20;;;1.20;;
6979;SDS011;3530;52.832;10.680;2023-07-28T02:49:07;1.13;;;1.13;;
6979;SDS011;3530;52.832;10.680;2023-07-28T02:51:53;1.13;;;1.00;;
6979;SDS011;3530;52.832;10.680;2023-07-28T02:54:39;1.10;;;1.10;;
6979;SDS011;3530;52.832;10.680;2023-07-28T02:57:24;1.00;;;1.00;;
6979;SDS011;3530;52.832;10.680;2023-07-28T03:00:10;1.20;;;1.20;;
6979;SDS011;3530;52.832;10.680;2023-07-28T03:02:56;1.20;;;1.10;;
6979;SDS011;3530;52.832;10.680;2023-07-28T03:05:42;1.55;;;1.00;;
6979;SDS011;3530;52.832;10.680;2023-07-28T03:08:27;1.00;;;1.00;;
6979;SDS011;3530;52.832;10.680;2023-07-28T03:11:13;0.90;;;0.90;;
6979;SDS011;3530;52.832;10.680;2023-07-28T03:13:59;0.95;;;0.95;;
6979;SDS011;3530;52.832;10.680;2023-07-28T03:16:44;0.98;;;0.98;;
6979;SDS011;3530;52.832;10.680;2023-07-28T03:19:30;1.02;;;1.02;;
6979;SDS011;3530;52.832;10.680;2023-07-28T03:22:16;1.10;;;1.10;;
6979;SDS011;3530;52.832;10.680;2023-07-28T03:25:01;0.90;;;0.90;;
6979;SDS011;3530;52.832;10.680;2023-07-28T03:27:48;0.90;;;0.90;;
6979;SDS011;3530;52.832;10.680;2023-07-28T03:30:34;0.95;;;0.95;;
6979;SDS011;3530;52.832;10.680;2023-07-28T03:33:19;0.90;;;0.90;;
6979;SDS011;3530;52.832;10.680;2023-07-28T03:36:05;0.90;;;0.90;;
6979;SDS011;3530;52.832;10.680;2023-07-28T03:38:51;1.10;;;1.10;;
6979;SDS011;3530;52.832;10.680;2023-07-28T03:41:36;0.80;;;0.80;;
6979;SDS011;3530;52.832;10.680;2023-07-28T03:44:22;1.00;;;1.00;;
6979;SDS011;3530;52.832;10.680;2023-07-28T03:47:08;0.80;;;0.80;;
6979;SDS011;3530;52.832;10.680;2023-07-28T03:49:54;0.82;;;0.82;;
6979;SDS011;3530;52.832;10.680;2023-07-28T03:52:39;0.80;;;0.80;;
6979;SDS011;3530;52.832;10.680;2023-07-28T03:55:25;0.90;;;0.90;;
6979;SDS011;3530;52.832;10.680;2023-07-28T03:58:10;0.90;;;0.90;;
6979;SDS011;3530;52.832;10.680;2023-07-28T04:00:56;0.93;;;0.93;;
6979;SDS011;3530;52.832;10.680;2023-07-28T04:03:42;1.00;;;1.00;;
6979;SDS011;3530;52.832;10.680;2023-07-28T04:09:27;0.90;;;0.90;;
6979;SDS011;3530;52.832;10.680;2023-07-28T04:12:13;0.93;;;0.93;;
6979;SDS011;3530;52.832;10.680;2023-07-28T04:14:58;1.05;;;1.05;;
6979;SDS011;3530;52.832;10.680;2023-07-28T04:17:44;0.80;;;0.80;;
6979;SDS011;3530;52.832;10.680;2023-07-28T04:20:30;0.82;;;0.82;;
6979;SDS011;3530;52.832;10.680;2023-07-28T04:23:15;0.95;;;0.95;;
6979;SDS011;3530;52.832;10.680;2023-07-28T04:26:01;0.95;;;0.95;;
6979;SDS011;3530;52.832;10.680;2023-07-28T04:28:47;0.95;;;0.95;;
6979;SDS011;3530;52.832;10.680;2023-07-28T04:31:32;2.17;;;0.90;;
6979;SDS011;3530;52.832;10.680;2023-07-28T04:34:18;1.05;;;1.05;;
6979;SDS011;3530;52.832;10.680;2023-07-28T04:37:04;0.80;;;0.80;;
6979;SDS011;3530;52.832;10.680;2023-07-28T04:39:50;0.80;;;0.80;;
6979;SDS011;3530;52.832;10.680;2023-07-28T04:42:35;0.82;;;0.82;;
6979;SDS011;3530;52.832;10.680;2023-07-28T04:45:21;0.90;;;0.90;;
6979;SDS011;3530;52.832;10.680;2023-07-28T04:48:07;0.80;;;0.80;;
6979;SDS011;3530;52.832;10.680;2023-07-28T04:50:53;0.80;;;0.80;;
6979;SDS011;3530;52.832;10.680;2023-07-28T04:53:38;1.00;;;1.00;;
6979;SDS011;3530;52.832;10.680;2023-07-28T04:56:24;1.55;;;1.00;;
6979;SDS011;3530;52.832;10.680;2023-07-28T04:59:10;0.85;;;0.85;;
6979;SDS011;3530;52.832;10.680;2023-07-28T05:01:56;0.75;;;0.75;;
6979;SDS011;3530;52.832;10.680;2023-07-28T05:04:42;1.00;;;1.00;;
6979;SDS011;3530;52.832;10.680;2023-07-28T05:07:27;0.90;;;0.90;;
6979;SDS011;3530;52.832;10.680;2023-07-28T05:10:14;0.80;;;0.80;;
6979;SDS011;3530;52.832;10.680;2023-07-28T05:13:00;2.97;;;1.30;;
6979;SDS011;3530;52.832;10.680;2023-07-28T05:15:45;0.93;;;0.93;;
6979;SDS011;3530;52.832;10.680;2023-07-28T05:18:31;0.80;;;0.80;;
6979;SDS011;3530;52.832;10.680;2023-07-28T05:21:16;1.85;;;0.98;;
6979;SDS011;3530;52.832;10.680;2023-07-28T05:24:02;0.90;;;0.90;;
6979;SDS011;3530;52.832;10.680;2023-07-28T05:26:48;1.10;;;1.10;;
6979;SDS011;3530;52.832;10.680;2023-07-28T05:29:34;3.58;;;0.90;;
6979;SDS011;3530;52.832;10.680;2023-07-28T05:32:19;2.08;;;0.90;;
6979;SDS011;3530;52.832;10.680;2023-07-28T05:35:05;1.45;;;0.70;;
6979;SDS011;3530;52.832;10.680;2023-07-28T05:37:51;0.90;;;0.90;;
6979;SDS011;3530;52.832;10.680;2023-07-28T05:40:37;0.95;;;0.95;;
6979;SDS011;3530;52.832;10.680;2023-07-28T05:43:22;0.70;;;0.70;;
6979;SDS011;3530;52.832;10.680;2023-07-28T05:46:08;0.90;;;0.90;;
6979;SDS011;3530;52.832;10.680;2023-07-28T05:48:54;0.70;;;0.70;;
6979;SDS011;3530;52.832;10.680;2023-07-28T05:51:41;0.70;;;0.70;;
6979;SDS011;3530;52.832;10.680;2023-07-28T05:54:26;0.80;;;0.80;;
6979;SDS011;3530;52.832;10.680;2023-07-28T05:57:12;4.00;;;0.90;;
6979;SDS011;3530;52.832;10.680;2023-07-28T05:59:58;0.60;;;0.60;;
6979;SDS011;3530;52.832;10.680;2023-07-28T06:02:43;0.80;;;0.80;;
6979;SDS011;3530;52.832;10.680;2023-07-28T06:05:29;0.80;;;0.80;;
6979;SDS011;3530;52.832;10.680;2023-07-28T06:08:15;0.70;;;0.70;;
6979;SDS011;3530;52.832;10.680;2023-07-28T06:11:02;0.68;;;0.68;;
6979;SDS011;3530;52.832;10.680;2023-07-28T06:13:49;0.88;;;0.77;;
6979;SDS011;3530;52.832;10.680;2023-07-28T06:16:35;0.70;;;0.70;;
6979;SDS011;3530;52.832;10.680;2023-07-28T06:19:21;0.80;;;0.80;;
6979;SDS011;3530;52.832;10.680;2023-07-28T06:22:09;0.75;;;0.75;;
6979;SDS011;3530;52.832;10.680;2023-07-28T06:24:55;1.42;;;0.80;;
6979;SDS011;3530;52.832;10.680;2023-07-28T06:27:41;1.60;;;0.85;;
6979;SDS011;3530;52.832;10.680;2023-07-28T06:30:28;0.80;;;0.80;;
6979;SDS011;3530;52.832;10.680;2023-07-28T06:33:13;0.90;;;0.90;;
6979;SDS011;3530;52.832;10.680;2023-07-28T06:35:59;0.85;;;0.85;;
6979;SDS011;3530;52.832;10.680;2023-07-28T06:38:45;1.67;;;0.85;;
6979;SDS011;3530;52.832;10.680;2023-07-28T06:41:33;0.60;;;0.60;;
6979;SDS011;3530;52.832;10.680;2023-07-28T06:44:19;0.98;;;0.98;;
6979;SDS011;3530;52.832;10.680;2023-07-28T06:47:04;0.90;;;0.90;;
6979;SDS011;3530;52.832;10.680;2023-07-28T06:49:50;0.90;;;0.90;;
6979;SDS011;3530;52.832;10.680;2023-07-28T06:52:36;0.90;;;0.90;;
6979;SDS011;3530;52.832;10.680;2023-07-28T06:55:22;0.93;;;0.93;;
6979;SDS011;3530;52.832;10.680;2023-07-28T06:58:08;0.90;;;0.90;;
6979;SDS011;3530;52.832;10.680;2023-07-28T07:00:54;0.98;;;0.98;;
6979;SDS011;3530;52.832;10.680;2023-07-28T07:03:41;1.02;;;1.02;;
6979;SDS011;3530;52.832;10.680;2023-07-28T07:06:26;0.70;;;0.70;;
6979;SDS011;3530;52.832;10.680;2023-07-28T07:09:12;1.08;;;1.08;;
6979;SDS011;3530;52.832;10.680;2023-07-28T07:12:00;1.38;;;1.27;;
6979;SDS011;3530;52.832;10.680;2023-07-28T07:14:45;1.20;;;1.20;;
6979;SDS011;3530;52.832;10.680;2023-07-28T07:17:31;1.30;;;1.30;;
6979;SDS011;3530;52.832;10.680;2023-07-28T07:20:17;2.05;;;1.33;;
6979;SDS011;3530;52.832;10.680;2023-07-28T07:23:03;1.40;;;1.40;;
6979;SDS011;3530;52.832;10.680;2023-07-28T07:25:49;1.60;;;1.50;;
6979;SDS011;3530;52.832;10.680;2023-07-28T07:28:35;1.15;;;1.15;;
6979;SDS011;3530;52.832;10.680;2023-07-28T07:31:21;1.40;;;1.40;;
6979;SDS011;3530;52.832;10.680;2023-07-28T07:34:06;1.05;;;1.02;;
6979;SDS011;3530;52.832;10.680;2023-07-28T07:36:52;1.10;;;1.10;;
6979;SDS011;3530;52.832;10.680;2023-07-28T07:39:38;1.70;;;1.60;;
6979;SDS011;3530;52.832;10.680;2023-07-28T07:42:27;1.30;;;1.30;;
6979;SDS011;3530;52.832;10.680;2023-07-28T07:45:13;1.40;;;1.33;;
6979;SDS011;3530;52.832;10.680;2023-07-28T07:47:59;1.67;;;1.67;;
6979;SDS011;3530;52.832;10.680;2023-07-28T07:50:45;2.40;;;1.40;;
6979;SDS011;3530;52.832;10.680;2023-07-28T07:53:31;1.30;;;1.30;;
6979;SDS011;3530;52.832;10.680;2023-07-28T07:56:16;1.77;;;1.65;;
6979;SDS011;3530;52.832;10.680;2023-07-28T07:59:03;1.30;;;1.30;;
6979;SDS011;3530;52.832;10.680;2023-07-28T08:01:49;1.13;;;1.13;;
6979;SDS011;3530;52.832;10.680;2023-07-28T08:04:34;1.80;;;1.70;;
6979;SDS011;3530;52.832;10.680;2023-07-28T08:07:21;1.90;;;1.80;;
6979;SDS011;3530;52.832;10.680;2023-07-28T08:10:08;1.40;;;1.40;;
6979;SDS011;3530;52.832;10.680;2023-07-28T08:12:54;1.70;;;1.60;;
6979;SDS011;3530;52.832;10.680;2023-07-28T08:15:42;1.50;;;1.50;;
6979;SDS011;3530;52.832;10.680;2023-07-28T08:18:28;2.15;;;1.70;;
6979;SDS011;3530;52.832;10.680;2023-07-28T08:21:14;1.73;;;1.63;;
6979;SDS011;3530;52.832;10.680;2023-07-28T08:24:00;1.80;;;1.70;;
6979;SDS011;3530;52.832;10.680;2023-07-28T08:26:46;2.42;;;1.83;;
6979;SDS011;3530;52.832;10.680;2023-07-28T08:29:31;3.63;;;2.70;;
6979;SDS011;3530;52.832;10.680;2023-07-28T08:32:17;2.08;;;1.98;;
6979;SDS011;3530;52.832;10.680;2023-07-28T08:35:03;2.35;;;1.92;;
6979;SDS011;3530;52.832;10.680;2023-07-28T08:37:49;2.00;;;1.90;;
6979;SDS011;3530;52.832;10.680;2023-07-28T08:40:35;2.10;;;2.00;;
6979;SDS011;3530;52.832;10.680;2023-07-28T08:43:21;1.88;;;1.77;;
6979;SDS011;3530;52.832;10.680;2023-07-28T08:46:06;2.47;;;2.10;;
6979;SDS011;3530;52.832;10.680;2023-07-28T08:48:52;2.05;;;1.95;;
6979;SDS011;3530;52.832;10.680;2023-07-28T08:51:40;2.22;;;2.13;;
6979;SDS011;3530;52.832;10.680;2023-07-28T08:54:27;2.83;;;2.00;;
6979;SDS011;3530;52.832;10.680;2023-07-28T08:57:13;2.72;;;2.53;;
6979;SDS011;3530;52.832;10.680;2023-07-28T09:00:05;2.00;;;1.90;;
6979;SDS011;3530;52.832;10.680;2023-07-28T09:02:52;1.92;;;1.83;;
6979;SDS011;3530;52.832;10.680;2023-07-28T09:05:37;1.88;;;1.77;;
6979;SDS011;3530;52.832;10.680;2023-07-28T09:08:25;2.05;;;1.70;;
6979;SDS011;3530;52.832;10.680;2023-07-28T09:11:11;1.75;;;1.73;;
6979;SDS011;3530;52.832;10.680;2023-07-28T09:14:01;2.00;;;1.90;;
6979;SDS011;3530;52.832;10.680;2023-07-28T09:16:47;1.45;;;1.45;;
6979;SDS011;3530;52.832;10.680;2023-07-28T09:19:33;1.55;;;1.40;;
6979;SDS011;3530;52.832;10.680;2023-07-28T09:22:19;4.47;;;1.73;;
6979;SDS011;3530;52.832;10.680;2023-07-28T09:25:15;1.95;;;1.85;;
6979;SDS011;3530;52.832;10.680;2023-07-28T09:28:01;1.45;;;1.45;;
6979;SDS011;3530;52.832;10.680;2023-07-28T09:30:48;1.40;;;1.40;;
6979;SDS011;3530;52.832;10.680;2023-07-28T09:33:35;1.40;;;1.40;;
6979;SDS011;3530;52.832;10.680;2023-07-28T09:36:21;1.40;;;1.40;;
6979;SDS011;3530;52.832;10.680;2023-07-28T09:39:10;1.50;;;1.50;;
6979;SDS011;3530;52.832;10.680;2023-07-28T09:41:56;1.60;;;1.50;;
6979;SDS011;3530;52.832;10.680;2023-07-28T09:44:45;1.17;;;1.17;;
6979;SDS011;3530;52.832;10.680;2023-07-28T09:47:30;1.40;;;1.40;;
6979;SDS011;3530;52.832;10.680;2023-07-28T09:50:22;2.08;;;1.98;;
6979;SDS011;3530;52.832;10.680;2023-07-28T09:53:09;2.00;;;1.80;;
6979;SDS011;3530;52.832;10.680;2023-07-28T09:55:56;3.15;;;2.38;;
6979;SDS011;3530;52.832;10.680;2023-07-28T09:58:49;1.73;;;1.63;;
6979;SDS011;3530;52.832;10.680;2023-07-28T10:01:35;2.10;;;1.90;;
6979;SDS011;3530;52.832;10.680;2023-07-28T10:04:21;2.30;;;2.20;;
6979;SDS011;3530;52.832;10.680;2023-07-28T10:07:07;2.47;;;2.28;;
6979;SDS011;3530;52.832;10.680;2023-07-28T10:09:53;2.35;;;2.17;;
6979;SDS011;3530;52.832;10.680;2023-07-28T10:12:39;2.35;;;2.25;;
6979;SDS011;3530;52.832;10.680;2023-07-28T10:15:28;2.30;;;2.20;;
6979;SDS011;3530;52.832;10.680;2023-07-28T10:18:15;3.42;;;3.13;;
6979;SDS011;3530;52.832;10.680;2023-07-28T10:21:08;3.03;;;2.83;;
6979;SDS011;3530;52.832;10.680;2023-07-28T10:23:58;2.78;;;2.67;;
6979;SDS011;3530;52.832;10.680;2023-07-28T10:26:44;2.47;;;2.35;;
6979;SDS011;3530;52.832;10.680;2023-07-28T10:29:29;3.60;;;3.30;;
6979;SDS011;3530;52.832;10.680;2023-07-28T10:32:26;4.18;;;3.38;;
6979;SDS011;3530;52.832;10.680;2023-07-28T10:37:58;3.72;;;3.42;;
6979;SDS011;3530;52.832;10.680;2023-07-28T10:41:22;5.32;;;4.82;;
6979;SDS011;3530;52.832;10.680;2023-07-28T10:44:08;5.10;;;4.70;;
6979;SDS011;3530;52.832;10.680;2023-07-28T10:46:54;4.68;;;3.85;;
6979;SDS011;3530;52.832;10.680;2023-07-28T10:49:40;4.72;;;4.03;;
6979;SDS011;3530;52.832;10.680;2023-07-28T10:52:25;3.78;;;3.47;;
6979;SDS011;3530;52.832;10.680;2023-07-28T10:55:22;4.28;;;3.88;;
6979;SDS011;3530;52.832;10.680;2023-07-28T10:58:09;4.13;;;3.83;;
6979;SDS011;3530;52.832;10.680;2023-07-28T11:00:55;5.00;;;4.50;;
6979;SDS011;3530;52.832;10.680;2023-07-28T11:03:40;5.93;;;4.97;;
6979;SDS011;3530;52.832;10.680;2023-07-28T11:06:26;4.07;;;3.78;;
6979;SDS011;3530;52.832;10.680;2023-07-28T11:09:12;4.47;;;4.05;;
6979;SDS011;3530;52.832;10.680;2023-07-28T11:12:01;4.70;;;4.30;;
6979;SDS011;3530;52.832;10.680;2023-07-28T11:14:46;5.72;;;5.28;;
6979;SDS011;3530;52.832;10.680;2023-07-28T11:17:32;6.93;;;4.97;;
6979;SDS011;3530;52.832;10.680;2023-07-28T11:20:21;4.43;;;4.13;;
6979;SDS011;3530;52.832;10.680;2023-07-28T11:23:08;4.65;;;4.25;;
6979;SDS011;3530;52.832;10.680;2023-07-28T11:25:54;4.60;;;4.30;;
6979;SDS011;3530;52.832;10.680;2023-07-28T11:28:40;4.65;;;4.25;;
6979;SDS011;3530;52.832;10.680;2023-07-28T11:31:26;4.97;;;4.47;;
6979;SDS011;3530;52.832;10.680;2023-07-28T11:34:15;4.57;;;4.18;;
6979;SDS011;3530;52.832;10.680;2023-07-28T11:37:01;3.88;;;3.47;;
6979;SDS011;3530;52.832;10.680;2023-07-28T11:39:49;5.15;;;4.43;;
6979;SDS011;3530;52.832;10.680;2023-07-28T11:42:35;4.22;;;3.92;;
6979;SDS011;3530;52.832;10.680;2023-07-28T11:45:21;5.57;;;4.10;;
6979;SDS011;3530;52.832;10.680;2023-07-28T11:48:08;5.47;;;3.90;;
6979;SDS011;3530;52.832;10.680;2023-07-28T11:50:53;4.55;;;4.20;;
6979;SDS011;3530;52.832;10.680;2023-07-28T11:53:41;4.55;;;4.15;;
6979;SDS011;3530;52.832;10.680;2023-07-28T11:56:27;4.70;;;3.90;;
6979;SDS011;3530;52.832;10.680;2023-07-28T11:59:15;5.22;;;4.13;;
6979;SDS011;3530;52.832;10.680;2023-07-28T12:02:02;3.75;;;3.45;;
6979;SDS011;3530;52.832;10.680;2023-07-28T12:04:52;2.67;;;2.40;;
6979;SDS011;3530;52.832;10.680;2023-07-28T12:07:39;2.20;;;2.00;;
6979;SDS011;3530;52.832;10.680;2023-07-28T12:10:25;2.00;;;1.90;;
6979;SDS011;3530;52.832;10.680;2023-07-28T12:13:11;2.10;;;1.55;;
6979;SDS011;3530;52.832;10.680;2023-07-28T12:15:57;2.05;;;1.33;;
6979;SDS011;3530;52.832;10.680;2023-07-28T12:18:42;1.30;;;1.30;;
6979;SDS011;3530;52.832;10.680;2023-07-28T12:21:31;1.30;;;1.30;;
6979;SDS011;3530;52.832;10.680;2023-07-28T12:24:16;1.65;;;1.55;;
6979;SDS011;3530;52.832;10.680;2023-07-28T12:27:02;1.25;;;1.25;;
6979;SDS011;3530;52.832;10.680;2023-07-28T12:29:48;2.90;;;1.20;;
6979;SDS011;3530;52.832;10.680;2023-07-28T12:32:33;1.45;;;1.35;;
6979;SDS011;3530;52.832;10.680;2023-07-28T12:35:19;1.70;;;1.60;;
6979;SDS011;3530;52.832;10.680;2023-07-28T12:38:07;1.40;;;1.40;;
6979;SDS011;3530;52.832;10.680;2023-07-28T12:40:53;1.60;;;1.50;;
6979;SDS011;3530;52.832;10.680;2023-07-28T12:43:40;1.67;;;1.58;;
6979;SDS011;3530;52.832;10.680;2023-07-28T12:46:25;1.90;;;1.80;;
6979;SDS011;3530;52.832;10.680;2023-07-28T12:49:11;1.75;;;1.67;;
6979;SDS011;3530;52.832;10.680;2023-07-28T12:51:58;1.70;;;1.70;;
6979;SDS011;3530;52.832;10.680;2023-07-28T12:54:44;1.90;;;1.75;;
6979;SDS011;3530;52.832;10.680;2023-07-28T12:57:29;1.83;;;1.75;;
6979;SDS011;3530;52.832;10.680;2023-07-28T13:00:15;2.15;;;2.05;;
6979;SDS011;3530;52.832;10.680;2023-07-28T13:03:01;2.88;;;1.83;;
6979;SDS011;3530;52.832;10.680;2023-07-28T13:05:47;2.22;;;2.13;;
6979;SDS011;3530;52.832;10.680;2023-07-28T13:08:33;2.45;;;1.95;;
6979;SDS011;3530;52.832;10.680;2023-07-28T13:11:19;2.20;;;2.10;;
6979;SDS011;3530;52.832;10.680;2023-07-28T13:14:04;2.38;;;2.28;;
6979;SDS011;3530;52.832;10.680;2023-07-28T13:16:50;2.00;;;1.90;;
6979;SDS011;3530;52.832;10.680;2023-07-28T13:19:36;1.90;;;1.80;;
6979;SDS011;3530;52.832;10.680;2023-07-28T13:22:22;2.15;;;2.05;;
6979;SDS011;3530;52.832;10.680;2023-07-28T13:25:08;2.05;;;1.95;;
6979;SDS011;3530;52.832;10.680;2023-07-28T13:27:54;2.00;;;1.90;;
6979;SDS011;3530;52.832;10.680;2023-07-28T13:30:39;1.95;;;1.90;;
6979;SDS011;3530;52.832;10.680;2023-07-28T13:33:26;3.05;;;2.47;;
6979;SDS011;3530;52.832;10.680;2023-07-28T13:36:12;12.32;;;4.88;;
6979;SDS011;3530;52.832;10.680;2023-07-28T13:38:57;4.05;;;2.83;;
6979;SDS011;3530;52.832;10.680;2023-07-28T13:41:43;31.17;;;8.60;;
6979;SDS011;3530;52.832;10.680;2023-07-28T13:44:29;31.83;;;9.40;;
6979;SDS011;3530;52.832;10.680;2023-07-28T13:47:14;3.92;;;2.97;;
6979;SDS011;3530;52.832;10.680;2023-07-28T13:50:00;10.68;;;4.82;;
6979;SDS011;3530;52.832;10.680;2023-07-28T13:52:46;6.32;;;2.90;;
6979;SDS011;3530;52.832;10.680;2023-07-28T13:55:31;4.85;;;3.42;;
6979;SDS011;3530;52.832;10.680;2023-07-28T13:58:17;10.40;;;5.43;;
6979;SDS011;3530;52.832;10.680;2023-07-28T14:01:03;12.40;;;4.55;;
6979;SDS011;3530;52.832;10.680;2023-07-28T14:03:48;2.47;;;2.35;;
6979;SDS011;3530;52.832;10.680;2023-07-28T14:06:34;3.17;;;2.67;;
6979;SDS011;3530;52.832;10.680;2023-07-28T14:09:20;5.00;;;3.15;;
6979;SDS011;3530;52.832;10.680;2023-07-28T14:12:06;8.85;;;4.55;;
6979;SDS011;3530;52.832;10.680;2023-07-28T14:14:52;3.78;;;3.25;;
6979;SDS011;3530;52.832;10.680;2023-07-28T14:17:37;6.13;;;3.53;;
6979;SDS011;3530;52.832;10.680;2023-07-28T14:20:23;3.42;;;2.60;;
6979;SDS011;3530;52.832;10.680;2023-07-28T14:23:22;6.45;;;3.35;;
6979;SDS011;3530;52.832;10.680;2023-07-28T14:26:08;6.20;;;3.40;;
6979;SDS011;3530;52.832;10.680;2023-07-28T14:28:54;4.80;;;2.47;;
6979;SDS011;3530;52.832;10.680;2023-07-28T14:31:40;2.97;;;2.63;;
6979;SDS011;3530;52.832;10.680;2023-07-28T14:34:26;2.10;;;2.00;;
6979;SDS011;3530;52.832;10.680;2023-07-28T14:37:11;2.60;;;2.45;;
6979;SDS011;3530;52.832;10.680;2023-07-28T14:39:57;5.20;;;3.58;;
6979;SDS011;3530;52.832;10.680;2023-07-28T14:42:42;3.85;;;3.13;;
6979;SDS011;3530;52.832;10.680;2023-07-28T14:45:28;3.50;;;2.85;;
6979;SDS011;3530;52.832;10.680;2023-07-28T14:48:14;2.28;;;2.08;;
6979;SDS011;3530;52.832;10.680;2023-07-28T14:50:59;3.75;;;2.90;;
6979;SDS011;3530;52.832;10.680;2023-07-28T14:53:45;2.45;;;2.35;;
6979;SDS011;3530;52.832;10.680;2023-07-28T14:56:32;2.30;;;2.20;;
6979;SDS011;3530;52.832;10.680;2023-07-28T14:59:17;2.10;;;2.00;;
6979;SDS011;3530;52.832;10.680;2023-07-28T15:02:03;2.20;;;2.10;;
6979;SDS011;3530;52.832;10.680;2023-07-28T15:04:49;2.15;;;2.00;;
6979;SDS011;3530;52.832;10.680;2023-07-28T15:07:35;2.47;;;2.30;;
6979;SDS011;3530;52.832;10.680;2023-07-28T15:10:21;2.47;;;2.28;;
6979;SDS011;3530;52.832;10.680;2023-07-28T15:13:06;1.80;;;1.70;;
6979;SDS011;3530;52.832;10.680;2023-07-28T15:15:52;2.00;;;1.90;;
6979;SDS011;3530;52.832;10.680;2023-07-28T15:18:38;2.28;;;2.17;;
6979;SDS011;3530;52.832;10.680;2023-07-28T15:21:23;2.78;;;1.92;;
6979;SDS011;3530;52.832;10.680;2023-07-28T15:24:09;2.10;;;2.00;;
6979;SDS011;3530;52.832;10.680;2023-07-28T15:26:55;2.42;;;2.30;;
6979;SDS011;3530;52.832;10.680;2023-07-28T15:29:40;2.47;;;2.00;;
6979;SDS011;3530;52.832;10.680;2023-07-28T15:32:26;1.98;;;1.88;;
6979;SDS011;3530;52.832;10.680;2023-07-28T15:35:12;1.73;;;1.67;;
6979;SDS011;3530;52.832;10.680;2023-07-28T15:37:58;2.13;;;2.03;;
6979;SDS011;3530;52.832;10.680;2023-07-28T15:40:43;2.10;;;2.00;;
6979;SDS011;3530;52.832;10.680;2023-07-28T15:43:29;5.75;;;2.25;;
6979;SDS011;3530;52.832;10.680;2023-07-28T15:46:15;1.80;;;1.70;;
6979;SDS011;3530;52.832;10.680;2023-07-28T15:49:00;2.00;;;1.90;;
6979;SDS011;3530;52.832;10.680;2023-07-28T15:51:46;1.83;;;1.73;;
6979;SDS011;3530;52.832;10.680;2023-07-28T15:54:32;2.10;;;2.00;;
6979;SDS011;3530;52.832;10.680;2023-07-28T15:57:17;1.70;;;1.70;;
6979;SDS011;3530;52.832;10.680;2023-07-28T16:00:03;2.50;;;2.10;;
6979;SDS011;3530;52.832;10.680;2023-07-28T16:02:49;1.95;;;1.85;;
6979;SDS011;3530;52.832;10.680;2023-07-28T16:05:35;4.28;;;1.98;;
6979;SDS011;3530;52.832;10.680;2023-07-28T16:08:23;1.85;;;1.75;;
6979;SDS011;3530;52.832;10.680;2023-07-28T16:11:08;2.03;;;1.92;;
6979;SDS011;3530;52.832;10.680;2023-07-28T16:13:54;2.28;;;2.08;;
6979;SDS011;3530;52.832;10.680;2023-07-28T16:16:40;2.08;;;1.98;;
6979;SDS011;3530;52.832;10.680;2023-07-28T16:19:25;1.90;;;1.80;;
6979;SDS011;3530;52.832;10.680;2023-07-28T16:22:11;1.85;;;1.85;;
6979;SDS011;3530;52.832;10.680;2023-07-28T16:24:57;1.75;;;1.65;;
6979;SDS011;3530;52.832;10.680;2023-07-28T16:27:42;1.80;;;1.80;;
6979;SDS011;3530;52.832;10.680;2023-07-28T16:30:28;1.58;;;1.58;;
6979;SDS011;3530;52.832;10.680;2023-07-28T16:33:14;2.00;;;1.90;;
6979;SDS011;3530;52.832;10.680;2023-07-28T16:35:59;2.25;;;2.15;;
6979;SDS011;3530;52.832;10.680;2023-07-28T16:38:45;2.00;;;1.90;;
6979;SDS011;3530;52.832;10.680;2023-07-28T16:41:31;2.47;;;2.28;;
6979;SDS011;3530;52.832;10.680;2023-07-28T16:44:16;2.13;;;2.03;;
6979;SDS011;3530;52.832;10.680;2023-07-28T16:47:02;1.77;;;1.67;;
6979;SDS011;3530;52.832;10.680;2023-07-28T16:49:48;2.10;;;1.95;;
6979;SDS011;3530;52.832;10.680;2023-07-28T16:52:33;2.70;;;1.98;;
6979;SDS011;3530;52.832;10.680;2023-07-28T16:55:19;2.13;;;2.03;;
6979;SDS011;3530;52.832;10.680;2023-07-28T16:58:05;1.70;;;1.60;;
6979;SDS011;3530;52.832;10.680;2023-07-28T17:00:51;2.30;;;2.20;;
6979;SDS011;3530;52.832;10.680;2023-07-28T17:03:36;2.65;;;1.90;;